Time;durP1;ratioP1;P1;durP2;ratioP2;P2;SDS_P1;SDS_P2;PMS_P1;PMS_P2;Temp;Humidity;BMP_temperature;BMP_pressure;BME280_temperature;BME280_humidity;BME280_pressure;Samples;Min_cycle;Max_cycle;Signal;HPM_P1;HPM_P2
2023/11/27 00:01:19;;;;;;;1.47;0.87;;;;;;;-141.23;100.00;62281.09;5110994;28;20607;-70
2023/11/27 00:03:45;;;;;;;1.67;1.40;;;;;;;-141.23;100.00;62281.09;5080497;28;20531;-71
2023/11/27 00:06:12;;;;;;;0.50;0.50;;;;;;;-141.23;100.00;62281.09;5114300;28;20140;-71
2023/11/27 00:08:39;;;;;;;0.50;0.50;;;;;;;-141.23;100.00;62281.09;5080495;28;20043;-71
2023/11/27 00:11:06;;;;;;;0.53;0.53;;;;;;;-141.23;100.00;62281.09;5097296;28;20386;-71
2023/11/27 00:13:32;;;;;;;1.40;1.20;;;;;;;-141.23;100.00;62281.09;5097436;28;20057;-71
2023/11/27 00:15:57;;;;;;;0.50;0.50;;;;;;;-141.23;100.00;62281.09;5097431;28;20471;-72
2023/11/27 00:18:23;;;;;;;0.50;0.50;;;;;;;-141.23;100.00;62281.09;5080930;28;20047;-70
2023/11/27 00:20:50;;;;;;;0.60;0.60;;;;;;;-141.23;100.00;62281.09;5080405;28;20103;-70
2023/11/27 00:23:17;;;;;;;0.60;0.60;;;;;;;-141.23;100.00;62281.09;5115218;27;20039;-71
2023/11/27 00:25:43;;;;;;;0.50;0.50;;;;;;;-141.23;100.00;62281.09;5100966;27;20046;-71
2023/11/27 00:28:08;;;;;;;0.63;0.63;;;;;;;-141.23;100.00;62281.09;5100636;27;20049;-71
2023/11/27 00:30:36;;;;;;;0.60;0.60;;;;;;;-141.23;100.00;62281.09;5104612;27;20371;-71
2023/11/27 00:33:05;;;;;;;0.50;0.50;;;;;;;-141.23;100.00;62281.09;5105611;27;20545;-70
2023/11/27 00:35:32;;;;;;;0.50;0.50;;;;;;;-141.23;100.00;62281.09;5104399;27;20125;-70
2023/11/27 00:37:58;;;;;;;0.67;0.67;;;;;;;-141.23;100.00;62281.09;5104656;27;20065;-70
2023/11/27 00:40:24;;;;;;;0.60;0.60;;;;;;;-141.23;100.00;62281.09;5121816;27;20038;-71
2023/11/27 00:42:51;;;;;;;1.30;0.90;;;;;;;-141.23;100.00;62281.09;5121412;27;20463;-71
2023/11/27 00:45:17;;;;;;;0.50;0.50;;;;;;;-141.23;100.00;62281.09;5062408;28;20085;-71
2023/11/27 00:47:42;;;;;;;0.50;0.50;;;;;;;-141.23;100.00;62281.09;5046013;28;20093;-71
2023/11/27 00:50:09;;;;;;;0.63;0.63;;;;;;;-141.23;100.00;62281.09;5045843;28;20459;-71
2023/11/27 00:52:35;;;;;;;0.60;0.60;;;;;;;-141.23;100.00;62281.09;5045079;28;20044;-71
2023/11/27 00:55:01;;;;;;;0.50;0.50;;;;;;;-141.23;100.00;62281.09;5045924;28;20136;-72
2023/11/27 00:57:31;;;;;;;0.60;0.60;;;;;;;-141.23;100.00;62281.09;5062910;28;20134;-72
2023/11/27 00:59:57;;;;;;;0.50;0.50;;;;;;;-141.23;100.00;62281.09;5060739;28;20146;-72
2023/11/27 01:02:23;;;;;;;0.60;0.60;;;;;;;-141.23;100.00;62281.09;5059991;28;20039;-72
2023/11/27 01:04:49;;;;;;;0.60;0.60;;;;;;;-141.23;100.00;62281.09;5036071;28;20113;-72
2023/11/27 01:07:16;;;;;;;1.47;1.10;;;;;;;-141.23;100.00;62281.09;5036582;28;20107;-72
2023/11/27 01:09:42;;;;;;;0.50;0.50;;;;;;;-141.23;100.00;62281.09;5019745;28;20052;-73
2023/11/27 01:12:08;;;;;;;1.70;1.30;;;;;;;-141.23;100.00;62281.09;4996777;28;20115;-74
2023/11/27 01:14:35;;;;;;;0.60;0.60;;;;;;;-141.23;100.00;62281.09;4970744;28;20089;-73
2023/11/27 01:17:01;;;;;;;0.50;0.50;;;;;;;-141.23;100.00;62281.09;5021064;28;20049;-76
2023/11/27 01:19:28;;;;;;;0.60;0.60;;;;;;;-141.23;100.00;62281.09;5028937;28;20127;-72
2023/11/27 01:21:54;;;;;;;0.50;0.50;;;;;;;-141.23;100.00;62281.09;5012222;28;20046;-72
2023/11/27 01:24:20;;;;;;;0.50;0.50;;;;;;;-141.23;100.00;62281.09;5028226;28;20068;-71
2023/11/27 01:26:51;;;;;;;0.70;0.70;;;;;;;-141.23;100.00;62281.09;4975601;28;20124;-72
2023/11/27 01:29:17;;;;;;;0.60;0.60;;;;;;;-141.23;100.00;62281.09;4959553;28;20153;-72
2023/11/27 01:31:45;;;;;;;0.57;0.57;;;;;;;-141.23;100.00;62281.09;4956701;28;20137;-72
2023/11/27 01:34:11;;;;;;;0.53;0.53;;;;;;;-141.23;100.00;62281.09;4957135;28;20051;-73
2023/11/27 01:36:39;;;;;;;0.80;0.80;;;;;;;-141.23;100.00;62281.09;4967286;28;20060;-72
2023/11/27 01:39:05;;;;;;;0.50;0.50;;;;;;;-141.23;100.00;62281.09;4940904;28;20055;-75
2023/11/27 01:41:31;;;;;;;4.80;0.60;;;;;;;-141.23;100.00;62281.09;4924270;28;20054;-73
2023/11/27 01:43:56;;;;;;;1.13;1.00;;;;;;;-141.23;100.00;62281.09;4940704;28;20050;-73
2023/11/27 01:46:24;;;;;;;0.50;0.50;;;;;;;-141.23;100.00;62281.09;4972601;28;20057;-73
2023/11/27 01:48:54;;;;;;;0.50;0.50;;;;;;;-141.23;100.00;62281.09;4995547;28;20045;-73
2023/11/27 01:51:25;;;;;;;0.60;0.60;;;;;;;-141.23;100.00;62281.09;4962907;28;20154;-71
2023/11/27 01:53:53;;;;;;;0.70;0.70;;;;;;;-141.23;100.00;62281.09;4995097;28;20058;-69
2023/11/27 01:56:20;;;;;;;0.50;0.50;;;;;;;-141.23;100.00;62281.09;4962501;28;20053;-69
2023/11/27 01:58:48;;;;;;;0.50;0.50;;;;;;;-141.23;100.00;62281.09;5001065;28;20147;-70
2023/11/27 02:01:15;;;;;;;0.53;0.53;;;;;;;-141.23;100.00;62281.09;5034987;28;20083;-72
2023/11/27 02:03:41;;;;;;;0.50;0.50;;;;;;;-141.23;100.00;62281.09;5035285;28;20064;-72
2023/11/27 02:06:10;;;;;;;0.50;0.50;;;;;;;-141.23;100.00;62281.09;5050443;28;20051;-74
2023/11/27 02:08:44;;;;;;;0.60;0.60;;;;;;;-141.23;100.00;62281.09;5116734;27;20057;-69
2023/11/27 02:11:17;;;;;;;0.60;0.60;;;;;;;-141.23;100.00;62281.09;5087154;27;20046;-72
2023/11/27 02:13:45;;;;;;;0.63;0.63;;;;;;;-141.23;100.00;62281.09;5112958;27;20133;-72
2023/11/27 02:16:13;;;;;;;0.50;0.50;;;;;;;-141.23;100.00;62281.09;5072743;28;20104;-74
2023/11/27 02:18:39;;;;;;;0.50;0.50;;;;;;;-141.23;100.00;62281.09;5030242;28;20049;-72
2023/11/27 02:21:08;;;;;;;0.57;0.57;;;;;;;-141.23;100.00;62281.09;4997232;28;20508;-73
2023/11/27 02:23:34;;;;;;;0.70;0.70;;;;;;;-141.23;100.00;62281.09;5007659;28;20103;-74
2023/11/27 02:26:03;;;;;;;0.73;0.73;;;;;;;-141.23;100.00;62281.09;5003045;28;20158;-73
2023/11/27 02:28:30;;;;;;;0.60;0.60;;;;;;;-141.23;100.00;62281.09;5018820;28;20055;-71
2023/11/27 02:30:57;;;;;;;0.67;0.67;;;;;;;-141.23;100.00;62281.09;5001217;28;20385;-72
2023/11/27 02:33:26;;;;;;;0.60;0.60;;;;;;;-141.23;100.00;62281.09;4978879;28;20144;-72
2023/11/27 02:35:53;;;;;;;0.60;0.60;;;;;;;-141.23;100.00;62281.09;4982667;28;20057;-71
2023/11/27 02:38:20;;;;;;;3.03;2.00;;;;;;;-141.23;100.00;62281.09;4985876;28;20061;-72
2023/11/27 02:40:48;;;;;;;0.60;0.60;;;;;;;-141.23;100.00;62281.09;4985184;28;20037;-71
2023/11/27 02:43:14;;;;;;;0.50;0.50;;;;;;;-141.23;100.00;62281.09;4999862;28;20052;-70
2023/11/27 02:45:41;;;;;;;0.63;0.63;;;;;;;-141.23;100.00;62281.09;4999839;28;20045;-72
2023/11/27 02:48:09;;;;;;;0.50;0.50;;;;;;;-141.23;100.00;62281.09;5035202;28;20139;-71
2023/11/27 02:50:35;;;;;;;0.53;0.53;;;;;;;-141.23;100.00;62281.09;5056876;28;20670;-71
2023/11/27 02:53:02;;;;;;;0.60;0.60;;;;;;;-141.23;100.00;62281.09;5076739;28;20126;-71
2023/11/27 02:55:32;;;;;;;0.60;0.60;;;;;;;-141.23;100.00;62281.09;5054460;28;20403;-74
2023/11/27 02:58:00;;;;;;;0.53;0.53;;;;;;;-141.23;100.00;62281.09;5058083;28;20055;-71
2023/11/27 03:00:26;;;;;;;0.50;0.50;;;;;;;-141.23;100.00;62281.09;5064890;28;20047;-72
2023/11/27 03:02:52;;;;;;;0.60;0.60;;;;;;;-141.23;100.00;62281.09;5056574;28;20044;-71
2023/11/27 03:05:20;;;;;;;0.50;0.50;;;;;;;-141.23;100.00;62281.09;5009348;28;20511;-72
2023/11/27 03:07:47;;;;;;;0.50;0.50;;;;;;;-141.23;100.00;62281.09;5035700;28;20052;-71
2023/11/27 03:10:14;;;;;;;0.50;0.50;;;;;;;-141.23;100.00;62281.09;5033700;28;20060;-71
2023/11/27 03:12:41;;;;;;;0.50;0.50;;;;;;;-141.23;100.00;62281.09;4974262;28;20056;-70
2023/11/27 03:15:09;;;;;;;0.50;0.50;;;;;;;-141.23;100.00;62281.09;4991697;28;20050;-71
2023/11/27 03:17:38;;;;;;;0.50;0.50;;;;;;;-141.23;100.00;62281.09;4958173;28;20050;-68
2023/11/27 03:20:06;;;;;;;0.60;0.60;;;;;;;-141.23;100.00;62281.09;4974398;28;20153;-68
2023/11/27 03:22:31;;;;;;;0.50;0.50;;;;;;;-141.23;100.00;62281.09;4990247;28;20057;-69
2023/11/27 03:24:59;;;;;;;0.50;0.50;;;;;;;-141.23;100.00;62281.09;5006136;28;20061;-66
2023/11/27 03:27:25;;;;;;;0.80;0.80;;;;;;;-141.23;100.00;62281.09;4981407;28;20141;-67
2023/11/27 03:29:51;;;;;;;0.50;0.50;;;;;;;-141.23;100.00;62281.09;4985375;28;20141;-67
2023/11/27 03:32:18;;;;;;;1.50;1.37;;;;;;;-141.23;100.00;62281.09;4957600;28;20046;-67
2023/11/27 03:34:43;;;;;;;1.23;0.60;;;;;;;-141.23;100.00;62281.09;4980822;28;20342;-67
2023/11/27 03:37:09;;;;;;;0.60;0.60;;;;;;;-141.23;100.00;62281.09;4999471;28;20102;-66
2023/11/27 03:39:36;;;;;;;1.03;0.70;;;;;;;-141.23;100.00;62281.09;5014467;28;20076;-67
2023/11/27 03:42:03;;;;;;;0.40;0.40;;;;;;;-141.23;100.00;62281.09;4999542;28;20480;-68
2023/11/27 03:44:29;;;;;;;0.70;0.70;;;;;;;-141.23;100.00;62281.09;5064563;27;20059;-69
2023/11/27 03:46:56;;;;;;;1.43;1.10;;;;;;;-141.23;100.00;62281.09;5100082;27;20053;-69
2023/11/27 03:49:23;;;;;;;0.50;0.50;;;;;;;-141.23;100.00;62281.09;5118086;27;21412;-69
2023/11/27 03:51:50;;;;;;;0.70;0.70;;;;;;;-141.23;100.00;62281.09;5095535;27;20445;-69
2023/11/27 03:54:16;;;;;;;0.40;0.40;;;;;;;-141.23;100.00;62281.09;5100493;27;20058;-71
2023/11/27 03:56:44;;;;;;;1.17;1.00;;;;;;;-141.23;100.00;62281.09;5099060;27;20046;-69
2023/11/27 03:59:11;;;;;;;0.40;0.40;;;;;;;-141.23;100.00;62281.09;5112154;27;20490;-70
2023/11/27 04:01:37;;;;;;;3.03;2.20;;;;;;;-141.23;100.00;62281.09;5124969;27;20038;-67
2023/11/27 04:04:05;;;;;;;1.10;1.00;;;;;;;-141.23;100.00;62281.09;5118623;27;20030;-72
2023/11/27 04:06:34;;;;;;;0.70;0.70;;;;;;;-141.23;100.00;62281.09;5116711;27;20035;-69
2023/11/27 04:08:59;;;;;;;0.77;0.77;;;;;;;-141.23;100.00;62281.09;5121441;27;20489;-71
2023/11/27 04:11:27;;;;;;;0.53;0.53;;;;;;;-141.23;100.00;62281.09;5117630;27;20052;-66
2023/11/27 04:13:57;;;;;;;0.90;0.90;;;;;;;-141.23;100.00;62281.09;5107237;27;20053;-68
2023/11/27 04:16:24;;;;;;;0.45;0.45;;;;;;;-141.23;100.00;62281.09;5105202;27;20110;-67
2023/11/27 04:18:50;;;;;;;0.87;0.83;;;;;;;-141.23;100.00;62281.09;5121512;27;20478;-68
2023/11/27 04:21:19;;;;;;;0.53;0.53;;;;;;;-141.23;100.00;62281.09;5121501;27;20043;-67
2023/11/27 04:23:49;;;;;;;0.60;0.60;;;;;;;-141.23;100.00;62281.09;5113485;27;20041;-67
2023/11/27 04:26:16;;;;;;;0.60;0.60;;;;;;;-141.23;100.00;62281.09;5100888;27;20062;-65
2023/11/27 04:28:43;;;;;;;0.50;0.50;;;;;;;-141.23;100.00;62281.09;5118137;27;20054;-67
2023/11/27 04:31:10;;;;;;;0.50;0.50;;;;;;;-141.23;100.00;62281.09;5141748;27;20058;-67
2023/11/27 04:33:36;;;;;;;0.57;0.57;;;;;;;-141.23;100.00;62281.09;5100510;27;20042;-67
2023/11/27 04:36:02;;;;;;;0.60;0.60;;;;;;;-141.23;100.00;62281.09;5069801;28;20066;-68
2023/11/27 04:38:28;;;;;;;0.50;0.50;;;;;;;-141.23;100.00;62281.09;5046190;28;20051;-66
2023/11/27 04:40:56;;;;;;;0.50;0.50;;;;;;;-141.23;100.00;62281.09;5078015;28;20075;-69
2023/11/27 04:43:23;;;;;;;0.50;0.50;;;;;;;-141.23;100.00;62281.09;5079615;28;20102;-68
2023/11/27 04:45:49;;;;;;;0.77;0.77;;;;;;;-141.23;100.00;62281.09;5046543;28;20142;-67
2023/11/27 04:48:15;;;;;;;0.50;0.50;;;;;;;-141.23;100.00;62281.09;5045687;28;20150;-68
2023/11/27 04:50:43;;;;;;;1.17;1.07;;;;;;;-141.23;100.00;62281.09;5045859;28;20495;-68
2023/11/27 04:53:10;;;;;;;0.60;0.60;;;;;;;-141.23;100.00;62281.09;5063311;28;20054;-66
2023/11/27 04:55:36;;;;;;;0.67;0.60;;;;;;;-141.23;100.00;62281.09;5061232;28;20043;-68
2023/11/27 04:58:03;;;;;;;0.50;0.50;;;;;;;-141.23;100.00;62281.09;5061487;28;20063;-67
2023/11/27 05:00:29;;;;;;;0.60;0.60;;;;;;;-141.23;100.00;62281.09;5044871;28;20130;-68
2023/11/27 05:02:55;;;;;;;0.50;0.50;;;;;;;-141.23;100.00;62281.09;5044974;28;20426;-68
2023/11/27 05:05:21;;;;;;;0.60;0.60;;;;;;;-141.23;100.00;62281.09;5109253;27;20142;-73
2023/11/27 05:07:47;;;;;;;0.50;0.50;;;;;;;-141.23;100.00;62281.09;5077796;28;20060;-73
2023/11/27 05:10:13;;;;;;;0.97;0.90;;;;;;;-141.23;100.00;62281.09;5044428;28;20606;-71
2023/11/27 05:12:39;;;;;;;0.53;0.53;;;;;;;-141.23;100.00;62281.09;5060547;28;20046;-71
2023/11/27 05:15:08;;;;;;;0.70;0.70;;;;;;;-141.23;100.00;62281.09;5044048;28;20079;-71
2023/11/27 05:17:34;;;;;;;0.60;0.60;;;;;;;-141.23;100.00;62281.09;5058473;28;20079;-71
2023/11/27 05:20:01;;;;;;;0.50;0.50;;;;;;;-141.23;100.00;62281.09;5058739;28;21003;-71
2023/11/27 05:22:31;;;;;;;0.75;0.75;;;;;;;-141.23;100.00;62281.09;5078480;28;20044;-70
2023/11/27 05:24:57;;;;;;;0.60;0.60;;;;;;;-141.23;100.00;62281.09;5042686;28;20043;-70
2023/11/27 05:27:25;;;;;;;1.40;0.97;;;;;;;-141.23;100.00;62281.09;5077343;28;20070;-70
2023/11/27 05:29:51;;;;;;;0.70;0.70;;;;;;;-141.23;100.00;62281.09;5060445;28;20055;-70
2023/11/27 05:32:23;;;;;;;2.47;0.60;;;;;;;-141.23;100.00;62281.09;5060924;28;20097;-72
2023/11/27 05:34:50;;;;;;;0.73;0.73;;;;;;;-141.23;100.00;62281.09;5060455;28;20047;-70
2023/11/27 05:37:19;;;;;;;0.50;0.50;;;;;;;-141.23;100.00;62281.09;5060909;28;20142;-69
2023/11/27 05:39:44;;;;;;;1.90;0.80;;;;;;;-141.23;100.00;62281.09;5097550;27;20066;-69
2023/11/27 05:42:11;;;;;;;0.83;0.77;;;;;;;-141.23;100.00;62281.09;5083253;27;20050;-72
2023/11/27 05:44:40;;;;;;;0.53;0.53;;;;;;;-141.23;100.00;62281.09;5099625;27;20417;-70
2023/11/27 05:47:06;;;;;;;0.43;0.43;;;;;;;-141.23;100.00;62281.09;5082629;27;20062;-70
2023/11/27 05:49:33;;;;;;;0.40;0.40;;;;;;;-141.23;100.00;62281.09;5082538;27;20513;-68
2023/11/27 05:51:59;;;;;;;0.47;0.47;;;;;;;-141.23;100.00;62281.09;5092021;28;20556;-71
2023/11/27 05:54:26;;;;;;;6.53;2.13;;;;;;;-141.23;100.00;62281.09;5056788;28;20048;-70
2023/11/27 05:56:52;;;;;;;0.80;0.80;;;;;;;-141.23;100.00;62281.09;5058599;28;20513;-69
2023/11/27 05:59:19;;;;;;;3.67;1.40;;;;;;;-141.23;100.00;62281.09;5058480;28;20443;-70
2023/11/27 06:01:44;;;;;;;1.00;0.60;;;;;;;-141.23;100.00;62281.09;5091272;28;20138;-71
2023/11/27 06:04:10;;;;;;;21.50;4.40;;;;;;;-141.23;100.00;62281.09;5059363;28;20123;-70
2023/11/27 06:06:36;;;;;;;12.30;2.47;;;;;;;-141.23;100.00;62281.09;5059182;28;20092;-69
2023/11/27 06:09:02;;;;;;;10.67;3.00;;;;;;;-141.23;100.00;62281.09;5061353;28;20092;-69
2023/11/27 06:11:28;;;;;;;6.10;1.60;;;;;;;-141.23;100.00;62281.09;5061486;28;20108;-69
2023/11/27 06:13:54;;;;;;;4.33;1.60;;;;;;;-141.23;100.00;62281.09;5061357;28;20043;-70
2023/11/27 06:16:25;;;;;;;7.13;2.03;;;;;;;-141.23;100.00;62281.09;5077969;28;20045;-70
2023/11/27 06:18:52;;;;;;;9.23;1.85;;;;;;;-141.23;100.00;62281.09;5061539;28;20543;-70
2023/11/27 06:21:18;;;;;;;1.30;1.17;;;;;;;-141.23;100.00;62281.09;5061015;28;20472;-70
2023/11/27 06:23:43;;;;;;;0.90;0.70;;;;;;;-141.23;100.00;62281.09;5078719;27;20059;-71
2023/11/27 06:26:12;;;;;;;1.53;1.03;;;;;;;-141.23;100.00;62281.09;5082556;27;20047;-70
2023/11/27 06:28:39;;;;;;;0.53;0.53;;;;;;;-141.23;100.00;62281.09;5083405;27;20071;-69
2023/11/27 06:31:05;;;;;;;4.07;1.63;;;;;;;-141.23;100.00;62281.09;5081880;27;20055;-69
2023/11/27 06:33:30;;;;;;;3.60;1.33;;;;;;;-141.23;100.00;62281.09;5098753;27;20031;-69
2023/11/27 06:35:56;;;;;;;4.17;1.47;;;;;;;-141.23;100.00;62281.09;5082037;27;20100;-69
2023/11/27 06:38:22;;;;;;;3.80;1.03;;;;;;;-141.23;100.00;62281.09;5098946;27;20364;-68
2023/11/27 06:40:48;;;;;;;5.53;2.00;;;;;;;-141.23;100.00;62281.09;5081825;27;20087;-69
2023/11/27 06:43:15;;;;;;;1.03;0.83;;;;;;;-141.23;100.00;62281.09;5098840;27;20035;-72
2023/11/27 06:45:41;;;;;;;0.80;0.57;;;;;;;-141.23;100.00;62281.09;5081968;27;20050;-68
2023/11/27 06:48:06;;;;;;;6.40;2.60;;;;;;;-141.23;100.00;62281.09;5081809;27;20043;-68
2023/11/27 06:50:32;;;;;;;17.20;1.20;;;;;;;-141.23;100.00;62281.09;5081855;27;20481;-68
2023/11/27 06:52:58;;;;;;;7.30;1.70;;;;;;;-141.23;100.00;62281.09;5115628;27;20035;-67
2023/11/27 06:55:24;;;;;;;6.53;1.30;;;;;;;-141.23;100.00;62281.09;5098441;27;20175;-67
2023/11/27 06:57:50;;;;;;;7.63;2.80;;;;;;;-141.23;100.00;62281.09;5081580;27;20386;-68
2023/11/27 07:00:17;;;;;;;11.60;2.27;;;;;;;-141.23;100.00;62281.09;5115470;27;20545;-68
2023/11/27 07:02:43;;;;;;;20.07;2.60;;;;;;;-141.23;100.00;62281.09;5115658;27;20478;-68
2023/11/27 07:05:09;;;;;;;10.30;1.87;;;;;;;-141.23;100.00;62281.09;5098436;27;20035;-68
2023/11/27 07:07:35;;;;;;;4.83;1.70;;;;;;;-141.23;100.00;62281.09;5081311;27;20572;-69
2023/11/27 07:10:02;;;;;;;16.97;4.90;;;;;;;-141.23;100.00;62281.09;5081347;27;20039;-69
2023/11/27 07:12:32;;;;;;;9.52;3.42;;;;;;;-141.23;100.00;62281.09;5099296;27;20058;-69
2023/11/27 07:14:58;;;;;;;13.07;4.40;;;;;;;-141.23;100.00;62281.09;5081159;27;20493;-69
2023/11/27 07:17:24;;;;;;;24.83;5.20;;;;;;;-141.23;100.00;62281.09;5081081;27;20049;-69
2023/11/27 07:19:50;;;;;;;29.93;5.43;;;;;;;-141.23;100.00;62281.09;5097607;27;20521;-69
2023/11/27 07:22:16;;;;;;;25.20;6.23;;;;;;;-141.23;100.00;62281.09;5063114;27;20082;-73
2023/11/27 07:24:42;;;;;;;15.67;3.23;;;;;;;-141.23;100.00;62281.09;5085074;28;20110;-73
2023/11/27 07:27:07;;;;;;;19.43;6.03;;;;;;;-141.23;100.00;62281.09;5078649;27;20421;-73
2023/11/27 07:29:33;;;;;;;20.47;5.23;;;;;;;-141.23;100.00;62281.09;5078272;28;20086;-73
2023/11/27 07:32:00;;;;;;;36.13;8.00;;;;;;;-141.23;100.00;62281.09;5095463;27;20047;-72
2023/11/27 07:34:27;;;;;;;67.10;8.70;;;;;;;-141.23;100.00;62281.09;5078606;28;20130;-73
2023/11/27 07:36:53;;;;;;;31.57;7.60;;;;;;;-141.23;100.00;62281.09;5095511;28;20054;-73
2023/11/27 07:39:19;;;;;;;53.37;9.20;;;;;;;-141.23;100.00;62281.09;5094549;28;20450;-72
2023/11/27 07:41:46;;;;;;;32.70;8.60;;;;;;;-141.23;100.00;62281.09;5095607;28;20055;-74
2023/11/27 07:44:15;;;;;;;50.37;11.17;;;;;;;-141.23;100.00;62281.09;5062538;28;20498;-75
2023/11/27 07:46:41;;;;;;;34.10;6.83;;;;;;;-141.23;100.00;62281.09;5061953;28;20046;-74
2023/11/27 07:49:11;;;;;;;34.77;9.27;;;;;;;-141.23;100.00;62281.09;5078327;28;20035;-74
2023/11/27 07:51:37;;;;;;;50.00;11.30;;;;;;;-141.23;100.00;62281.09;5094851;28;20502;-76
2023/11/27 07:54:03;;;;;;;45.87;11.70;;;;;;;-141.23;100.00;62281.09;5092825;28;20207;-75
2023/11/27 07:56:30;;;;;;;44.33;11.20;;;;;;;-141.23;100.00;62281.09;5113169;28;20039;-75
2023/11/27 07:58:57;;;;;;;49.50;12.77;;;;;;;-141.23;100.00;62281.09;5113377;28;20046;-74
2023/11/27 08:01:24;;;;;;;57.87;13.67;;;;;;;-141.23;100.00;62281.09;5129799;28;20035;-75
2023/11/27 08:03:50;;;;;;;52.00;14.17;;;;;;;-141.23;100.00;62281.09;5130271;28;20045;-74
2023/11/27 08:06:17;;;;;;;54.23;12.83;;;;;;;-141.23;100.00;62281.09;5096467;28;20130;-74
2023/11/27 08:08:44;;;;;;;54.67;13.60;;;;;;;-141.23;100.00;62281.09;5134109;28;20073;-72
2023/11/27 08:11:10;;;;;;;70.27;15.13;;;;;;;-141.23;100.00;62281.09;5016063;28;20052;-74
2023/11/27 08:13:37;;;;;;;58.27;14.50;;;;;;;-141.23;100.00;62281.09;5030582;28;20053;-76
2023/11/27 08:16:04;;;;;;;58.53;15.90;;;;;;;-141.23;100.00;62281.09;5014870;28;20547;-74
2023/11/27 08:18:29;;;;;;;106.23;18.50;;;;;;;-141.23;100.00;62281.09;5015123;28;20049;-74
2023/11/27 08:20:56;;;;;;;92.47;18.10;;;;;;;-141.23;100.00;62281.09;5031442;28;20115;-74
2023/11/27 08:23:21;;;;;;;79.63;17.37;;;;;;;-141.23;100.00;62281.09;5031660;28;20037;-74
2023/11/27 08:25:47;;;;;;;69.27;17.33;;;;;;;-141.23;100.00;62281.09;5015070;28;20087;-72
2023/11/27 08:28:13;;;;;;;66.47;17.77;;;;;;;-141.23;100.00;62281.09;5048297;28;20053;-72
2023/11/27 08:30:41;;;;;;;83.73;18.63;;;;;;;-141.23;100.00;62281.09;5014619;28;20447;-73
2023/11/27 08:33:08;;;;;;;86.00;18.70;;;;;;;-141.23;100.00;62281.09;5015302;28;20047;-74
2023/11/27 08:35:34;;;;;;;103.47;18.47;;;;;;;-141.23;100.00;62281.09;5015033;28;20124;-73
2023/11/27 08:38:01;;;;;;;78.60;17.47;;;;;;;-141.23;100.00;62281.09;4998819;28;20184;-72
2023/11/27 08:40:29;;;;;;;96.90;18.40;;;;;;;-141.23;100.00;62281.09;5030809;28;20132;-72
2023/11/27 08:42:55;;;;;;;84.53;18.70;;;;;;;-141.23;100.00;62281.09;5115918;28;20085;-72
2023/11/27 08:45:21;;;;;;;109.43;20.63;;;;;;;-141.23;100.00;62281.09;5096773;28;20542;-72
2023/11/27 08:47:50;;;;;;;104.50;19.53;;;;;;;-141.23;100.00;62281.09;5130066;28;20041;-69
2023/11/27 08:50:24;;;;;;;87.97;18.60;;;;;;;-141.23;100.00;62281.09;5113677;28;20043;-68
2023/11/27 08:52:52;;;;;;;107.90;19.73;;;;;;;-141.23;100.00;62281.09;5116444;27;20047;-71
2023/11/27 08:55:19;;;;;;;312.50;25.20;;;;;;;-141.23;100.00;62281.09;5134143;27;20478;-71
2023/11/27 08:57:46;;;;;;;105.77;19.27;;;;;;;-141.23;100.00;62281.09;5134849;27;20035;-69
2023/11/27 09:00:18;;;;;;;143.60;20.10;;;;;;;-141.23;100.00;62281.09;5134489;27;20050;-68
2023/11/27 09:02:45;;;;;;;172.53;20.10;;;;;;;-141.23;100.00;62281.09;5116773;27;20035;-68
2023/11/27 09:05:11;;;;;;;76.37;18.03;;;;;;;-141.23;100.00;62281.09;5133374;27;20031;-69
2023/11/27 09:07:38;;;;;;;131.57;20.80;;;;;;;-141.23;100.00;62281.09;5116490;27;20367;-69
2023/11/27 09:10:06;;;;;;;76.40;18.13;;;;;;;-141.23;100.00;62281.09;5116300;27;20507;-72
2023/11/27 09:12:31;;;;;;;156.80;21.90;;;;;;;-141.23;100.00;62281.09;5098337;27;20039;-70
2023/11/27 09:14:58;;;;;;;133.13;19.20;;;;;;;-141.23;100.00;62281.09;5133154;27;20057;-70
2023/11/27 09:17:24;;;;;;;85.53;18.77;;;;;;;-141.23;100.00;62281.09;5115582;27;20050;-71
2023/11/27 09:19:49;;;;;;;77.03;18.17;;;;;;;-141.23;100.00;62281.09;5132693;27;20043;-72
2023/11/27 09:22:15;;;;;;;70.00;17.10;;;;;;;-141.23;100.00;62281.09;5134222;27;20463;-70
2023/11/27 09:24:42;;;;;;;55.33;17.30;;;;;;;-141.23;100.00;62281.09;5133712;27;20032;-73
2023/11/27 09:27:07;;;;;;;66.50;17.23;;;;;;;-141.23;100.00;62281.09;5115718;27;20042;-73
2023/11/27 09:29:33;;;;;;;78.40;17.43;;;;;;;-141.23;100.00;62281.09;5115490;27;20082;-70
2023/11/27 09:32:00;;;;;;;64.13;18.73;;;;;;;-141.23;100.00;62281.09;5132889;27;20047;-73
2023/11/27 09:34:29;;;;;;;51.67;18.03;;;;;;;-141.23;100.00;62281.09;5132850;27;20035;-77
2023/11/27 09:36:55;;;;;;;56.87;17.60;;;;;;;-141.23;100.00;62281.09;5132836;27;20135;-72
2023/11/27 09:39:21;;;;;;;56.70;16.90;;;;;;;-141.23;100.00;62281.09;5132388;27;20039;-72
2023/11/27 09:41:48;;;;;;;47.37;17.53;;;;;;;-141.23;100.00;62281.09;5150042;27;20413;-70
2023/11/27 09:44:13;;;;;;;42.13;17.33;;;;;;;-141.23;100.00;62281.09;5133614;27;20047;-73
2023/11/27 09:46:43;;;;;;;45.73;16.50;;;;;;;-141.23;100.00;62281.09;5115391;27;20039;-76
2023/11/27 09:49:17;;;;;;;38.00;15.93;;;;;;;-141.23;100.00;62281.09;5097922;27;20035;-75
2023/11/27 09:51:49;;;;;;;39.47;16.47;;;;;;;-141.23;100.00;62281.09;5132561;27;20092;-73
2023/11/27 09:54:16;;;;;;;39.13;15.70;;;;;;;-141.23;100.00;62281.09;5132694;27;20047;-71
2023/11/27 09:56:44;;;;;;;36.90;14.57;;;;;;;-141.23;100.00;62281.09;5115562;27;20472;-71
2023/11/27 09:59:11;;;;;;;36.63;14.70;;;;;;;-141.23;100.00;62281.09;5098250;27;20038;-70
2023/11/27 10:01:37;;;;;;;34.53;14.63;;;;;;;-141.23;100.00;62281.09;5114311;27;20789;-69
2023/11/27 10:04:07;;;;;;;29.07;13.00;;;;;;;-141.23;100.00;62281.09;5081165;27;20060;-67
2023/11/27 10:06:34;;;;;;;;;;;;;;;-141.23;100.00;62281.09;5133702;27;20458;-67
2023/11/27 10:09:07;;;;;;;23.57;11.30;;;;;;;-141.23;100.00;62281.09;5113920;27;19923;-69
2023/11/27 10:11:34;;;;;;;28.23;12.03;;;;;;;-141.23;100.00;62281.09;5096617;27;20101;-70
2023/11/27 10:14:08;;;;;;;31.00;12.73;;;;;;;-141.23;100.00;62281.09;5096399;27;20066;-69
2023/11/27 10:16:37;;;;;;;25.85;11.30;;;;;;;-141.23;100.00;62281.09;5114459;27;20039;-70
2023/11/27 10:19:08;;;;;;;22.07;11.67;;;;;;;-141.23;100.00;62281.09;5113800;27;20066;-72
2023/11/27 10:21:36;;;;;;;22.52;12.20;;;;;;;-141.23;100.00;62281.09;5113363;27;20039;-72
2023/11/27 10:24:10;;;;;;;21.70;9.90;;;;;;;-141.23;100.00;62281.09;5113660;27;20074;-70
2023/11/27 10:26:40;;;;;;;24.67;12.60;;;;;;;-141.23;100.00;62281.09;5097696;27;20038;-70
2023/11/27 10:29:09;;;;;;;19.17;10.57;;;;;;;-141.23;100.00;62281.09;5079771;27;20047;-70
2023/11/27 10:31:37;;;;;;;22.55;12.02;;;;;;;-141.23;100.00;62281.09;5079582;27;20039;-71
2023/11/27 10:34:05;;;;;;;29.13;11.63;;;;;;;-141.23;100.00;62281.09;5079554;27;20067;-75
2023/11/27 10:36:35;;;;;;;21.65;11.82;;;;;;;-141.23;100.00;62281.09;5103160;27;20046;-72
2023/11/27 10:39:05;;;;;;;24.30;13.10;;;;;;;-141.23;100.00;62281.09;5096938;27;20081;-75
2023/11/27 10:41:44;;;;;;;24.17;13.10;;;;;;;-141.23;100.00;62281.09;5075722;28;20174;-76
2023/11/27 10:44:13;;;;;;;22.15;12.15;;;;;;;-141.23;100.00;62281.09;5042752;28;20048;-74
2023/11/27 10:46:42;;;;;;;19.48;12.55;;;;;;;-141.23;100.00;62281.09;5076697;28;20040;-74
2023/11/27 10:49:14;;;;;;;28.88;13.52;;;;;;;-141.23;100.00;62281.09;5053134;28;20205;-75
2023/11/27 10:51:44;;;;;;;24.60;13.68;;;;;;;-141.23;100.00;62281.09;5032813;28;20057;-74
2023/11/27 10:54:14;;;;;;;28.13;13.57;;;;;;;-141.23;100.00;62281.09;5039563;28;20056;-75
2023/11/27 10:56:45;;;;;;;31.65;13.35;;;;;;;-141.23;100.00;62281.09;5052837;28;20045;-75
2023/11/27 10:59:13;;;;;;;24.65;14.65;;;;;;;-141.23;100.00;62281.09;5019534;28;20042;-70
2023/11/27 11:01:47;;;;;;;26.95;13.85;;;;;;;-141.23;100.00;62281.09;5035512;28;20585;-71
2023/11/27 11:04:53;;;;;;;17.00;10.85;;;;;;;-141.23;100.00;62281.09;5052907;28;20094;-71